createdAt,value
2019-02-20T00:00:15.001Z,7.0
2019-02-20T00:03:15.856Z,6.8
2019-02-20T00:06:15.520Z,6.7
2019-02-20T00:09:15.360Z,6.7
2019-02-20T00:12:14.850Z,6.6
2019-02-20T00:15:15.343Z,6.6
2019-02-20T00:18:20.104Z,6.6
2019-02-20T00:21:15.635Z,6.6
2019-02-20T00:24:15.006Z,6.6
2019-02-20T00:27:15.557Z,6.6
2019-02-20T00:30:15.028Z,6.6
2019-02-20T00:33:15.467Z,6.6
2019-02-20T00:36:15.039Z,6.5
2019-02-20T00:39:15.523Z,6.4
2019-02-20T00:42:15.009Z,6.4
2019-02-20T00:45:15.638Z,6.4
2019-02-20T00:48:15.284Z,6.3
2019-02-20T00:51:14.921Z,6.3
2019-02-20T00:54:20.085Z,6.3
2019-02-20T00:57:15.799Z,6.2
2019-02-20T01:00:15.513Z,6.2
2019-02-20T01:03:14.884Z,6.1
2019-02-20T01:06:15.516Z,6.1
2019-02-20T01:09:14.948Z,6.0
2019-02-20T01:12:15.429Z,6.0
2019-02-20T01:15:14.986Z,6.0
2019-02-20T01:18:15.743Z,5.9
2019-02-20T01:21:15.088Z,5.9
2019-02-20T01:24:15.620Z,5.9
2019-02-20T01:27:14.987Z,5.8
2019-02-20T01:30:15.628Z,5.8
2019-02-20T01:33:16.599Z,5.7
2019-02-20T01:36:15.434Z,5.7
2019-02-20T01:39:14.966Z,5.7
2019-02-20T01:42:15.320Z,5.7
2019-02-20T01:45:15.768Z,5.7
2019-02-20T01:48:15.359Z,5.6
2019-02-20T01:51:15.713Z,5.7
2019-02-20T01:54:15.051Z,5.7
2019-02-20T01:57:15.611Z,5.7
2019-02-20T02:00:15.127Z,5.6
2019-02-20T02:03:15.714Z,5.6
2019-02-20T02:06:15.190Z,5.6
2019-02-20T02:09:14.924Z,5.5
2019-02-20T02:12:15.480Z,5.4
2019-02-20T02:15:20.535Z,5.4
2019-02-20T02:18:15.433Z,5.4
2019-02-20T02:21:14.890Z,5.4
2019-02-20T02:24:15.521Z,5.4
2019-02-20T02:27:15.226Z,5.4
2019-02-20T02:30:15.654Z,5.4
2019-02-20T02:33:15.897Z,5.4
2019-02-20T02:36:15.511Z,5.4
2019-02-20T02:39:15.813Z,5.4
2019-02-20T02:42:15.322Z,5.4
2019-02-20T02:45:15.861Z,5.4
2019-02-20T02:48:15.315Z,5.4
2019-02-20T02:51:15.998Z,5.5
2019-02-20T02:54:15.506Z,5.5
2019-02-20T02:57:14.967Z,5.5
2019-02-20T03:00:15.475Z,5.5
2019-02-20T03:03:15.198Z,5.5
2019-02-20T03:06:15.672Z,5.5
2019-02-20T03:09:15.331Z,5.5
2019-02-20T03:12:15.059Z,5.4
2019-02-20T03:15:15.652Z,5.4
2019-02-20T03:18:15.224Z,5.4
2019-02-20T03:21:15.805Z,5.3
2019-02-20T03:24:15.346Z,5.3
2019-02-20T03:27:15.895Z,5.3
2019-02-20T03:30:15.502Z,5.2
2019-02-20T03:33:15.410Z,5.2
2019-02-20T03:36:15.031Z,5.1
2019-02-20T03:39:15.720Z,5.0
2019-02-20T03:42:15.274Z,5.0
2019-02-20T03:45:14.959Z,4.9
2019-02-20T03:48:16.032Z,4.8
2019-02-20T03:51:15.821Z,4.8
2019-02-20T03:54:15.382Z,4.7
2019-02-20T03:57:15.992Z,4.7
2019-02-20T04:00:15.512Z,4.7
2019-02-20T04:03:15.029Z,4.8
2019-02-20T04:06:15.628Z,4.7
2019-02-20T04:09:15.084Z,4.7
2019-02-20T04:12:15.857Z,4.7
2019-02-20T04:15:15.445Z,4.8
2019-02-20T04:18:15.380Z,4.8
2019-02-20T04:21:15.092Z,4.8
2019-02-20T04:24:15.712Z,4.8
2019-02-20T04:27:15.486Z,4.8
2019-02-20T04:30:15.766Z,4.8
2019-02-20T04:33:15.343Z,4.8
2019-02-20T04:36:15.156Z,4.8
2019-02-20T04:39:15.649Z,4.8
2019-02-20T04:42:15.131Z,4.8
2019-02-20T04:45:15.825Z,4.7
2019-02-20T04:48:15.570Z,4.7
2019-02-20T04:51:15.006Z,4.7
2019-02-20T04:54:15.692Z,4.7
2019-02-20T04:57:15.311Z,4.8
2019-02-20T05:00:15.156Z,4.8
2019-02-20T05:03:15.842Z,4.9
2019-02-20T05:06:15.470Z,4.9
2019-02-20T05:09:15.037Z,5.0
2019-02-20T05:12:15.899Z,5.0
2019-02-20T05:15:15.536Z,5.1
2019-02-20T05:18:15.274Z,5.1
2019-02-20T05:21:15.061Z,5.2
2019-02-20T05:24:23.996Z,5.2
2019-02-20T05:27:14.989Z,5.3
2019-02-20T05:30:15.654Z,5.3
2019-02-20T05:33:15.439Z,5.3
2019-02-20T05:36:15.054Z,5.3
2019-02-20T05:39:15.657Z,5.2
2019-02-20T05:42:15.166Z,5.1
2019-02-20T05:45:14.938Z,5.0
2019-02-20T05:48:15.778Z,4.9
2019-02-20T05:51:15.440Z,4.9
2019-02-20T05:54:15.285Z,4.9
2019-02-20T05:57:15.408Z,4.8
2019-02-20T06:00:15.431Z,4.8
2019-02-20T06:03:15.180Z,4.8
2019-02-20T06:06:15.906Z,4.8
2019-02-20T06:09:15.610Z,4.8
2019-02-20T06:12:15.146Z,4.8
2019-02-20T06:15:15.822Z,4.7
2019-02-20T06:18:15.789Z,4.7
2019-02-20T06:21:16.379Z,4.7
2019-02-20T06:24:15.016Z,4.7
2019-02-20T06:27:15.745Z,4.6
2019-02-20T06:30:15.462Z,4.6
2019-02-20T06:33:15.068Z,4.6
2019-02-20T06:36:15.593Z,4.7
2019-02-20T06:39:15.404Z,4.7
2019-02-20T06:42:15.039Z,4.8
2019-02-20T06:45:15.628Z,4.9
2019-02-20T06:48:15.487Z,5.0
2019-02-20T06:51:15.089Z,5.1
2019-02-20T06:54:15.847Z,5.2
2019-02-20T06:57:15.557Z,5.4
2019-02-20T07:00:15.191Z,5.5
2019-02-20T07:03:15.177Z,5.7
2019-02-20T07:06:15.761Z,5.9
2019-02-20T07:09:15.951Z,6.1
2019-02-20T07:12:14.902Z,6.2
2019-02-20T07:15:15.020Z,6.3
2019-02-20T07:18:15.407Z,6.5
2019-02-20T07:21:21.402Z,6.7
2019-02-20T07:24:16.096Z,6.8
2019-02-20T07:27:15.512Z,7.0
2019-02-20T07:30:27.304Z,7.1
2019-02-20T07:33:16.065Z,7.2
2019-02-20T07:36:17.100Z,7.4
2019-02-20T07:39:24.242Z,7.5
2019-02-20T07:42:15.509Z,7.6
2019-02-20T07:45:16.284Z,7.6
2019-02-20T07:48:15.945Z,7.7
2019-02-20T07:51:16.277Z,7.7
2019-02-20T07:54:27.152Z,7.8
2019-02-20T07:57:17.151Z,7.9
2019-02-20T08:00:15.212Z,8.1
2019-02-20T08:03:15.636Z,8.3
2019-02-20T08:06:15.986Z,8.6
2019-02-20T08:09:15.307Z,8.9
2019-02-20T08:12:15.245Z,9.3
2019-02-20T08:15:16.068Z,9.9
2019-02-20T08:18:15.274Z,10.3
2019-02-20T08:21:15.260Z,10.8
2019-02-20T08:24:16.027Z,11.1
2019-02-20T08:27:15.923Z,11.4
2019-02-20T08:30:15.155Z,11.8
2019-02-20T08:33:15.773Z,12.1
2019-02-20T08:36:15.354Z,12.5
2019-02-20T08:39:14.990Z,13.0
2019-02-20T08:42:15.714Z,13.4
2019-02-20T08:45:15.895Z,14.2
2019-02-20T08:48:15.730Z,14.8
2019-02-20T08:51:15.636Z,15.6
2019-02-20T08:54:15.677Z,16.2
2019-02-20T08:57:15.376Z,16.8
2019-02-20T09:00:15.344Z,17.8
2019-02-20T09:03:15.014Z,18.6
2019-02-20T09:06:15.590Z,19.6
2019-02-20T09:09:15.512Z,20.3
2019-02-20T09:12:15.149Z,21.1
2019-02-20T09:15:15.696Z,21.8
2019-02-20T09:18:15.445Z,22.1
2019-02-20T09:21:15.174Z,22.2
2019-02-20T09:24:15.871Z,22.0
2019-02-20T09:27:15.524Z,21.6
2019-02-20T09:30:15.203Z,21.1
2019-02-20T09:33:15.156Z,20.5
2019-02-20T09:36:15.824Z,19.9
2019-02-20T09:39:15.821Z,19.5
2019-02-20T09:42:15.605Z,19.5
2019-02-20T09:45:15.179Z,19.9
2019-02-20T09:48:15.781Z,20.7
2019-02-20T09:51:15.523Z,21.2
2019-02-20T09:54:15.188Z,21.6
2019-02-20T09:57:15.471Z,22.4
2019-02-20T10:00:15.152Z,22.9
2019-02-20T10:03:15.252Z,23.1
2019-02-20T10:06:15.238Z,23.0
2019-02-20T10:09:16.361Z,22.4
2019-02-20T10:12:15.446Z,22.2
2019-02-20T10:15:15.084Z,22.3
2019-02-20T10:18:15.260Z,22.6
2019-02-20T10:21:15.002Z,22.6
2019-02-20T10:24:15.636Z,22.6
2019-02-20T10:27:15.558Z,22.6
2019-02-20T10:30:15.380Z,23.1
2019-02-20T10:33:15.182Z,23.5
2019-02-20T10:36:15.881Z,23.6
2019-02-20T10:39:15.488Z,23.8
2019-02-20T10:42:17.357Z,23.8
2019-02-20T10:45:15.199Z,24.2
2019-02-20T10:48:14.999Z,24.3
2019-02-20T10:51:15.713Z,23.9
2019-02-20T10:54:15.310Z,24.0
2019-02-20T10:57:15.057Z,24.1
2019-02-20T11:00:23.499Z,23.8
2019-02-20T11:03:15.473Z,23.3
2019-02-20T11:06:15.134Z,22.6
2019-02-20T11:09:15.720Z,22.2
2019-02-20T11:12:15.338Z,21.4
2019-02-20T11:15:15.131Z,20.3
2019-02-20T11:18:15.799Z,19.4
2019-02-20T11:21:15.364Z,18.8
2019-02-20T11:24:15.036Z,18.8
2019-02-20T11:27:15.204Z,18.6
2019-02-20T11:30:14.998Z,18.5
2019-02-20T11:33:15.167Z,18.0
2019-02-20T11:36:15.875Z,18.1
2019-02-20T11:39:15.374Z,18.3
2019-02-20T11:42:15.397Z,18.4
2019-02-20T11:45:15.199Z,18.6
2019-02-20T11:48:14.942Z,18.7
2019-02-20T11:51:15.630Z,18.7
2019-02-20T11:54:15.623Z,18.7
2019-02-20T11:57:15.044Z,18.9
2019-02-20T12:00:15.856Z,19.1
2019-02-20T12:03:15.637Z,18.8
2019-02-20T12:06:15.567Z,18.7
2019-02-20T12:09:15.070Z,18.8
2019-02-20T12:12:16.018Z,18.6
2019-02-20T12:15:15.629Z,18.5
2019-02-20T12:18:17.540Z,18.4
2019-02-20T12:21:15.543Z,18.2
2019-02-20T12:24:15.276Z,18.1
2019-02-20T12:27:15.880Z,18.2
2019-02-20T12:30:15.420Z,18.2
2019-02-20T12:33:15.090Z,18.1
2019-02-20T12:36:15.835Z,18.2
2019-02-20T12:39:15.387Z,18.2
2019-02-20T12:42:15.075Z,18.0
2019-02-20T12:45:14.996Z,17.9
2019-02-20T12:48:15.940Z,17.9
2019-02-20T12:51:15.841Z,17.9
2019-02-20T12:54:15.631Z,18.2
2019-02-20T12:57:15.565Z,18.3
2019-02-20T13:00:15.631Z,18.0
2019-02-20T13:03:15.788Z,17.9
2019-02-20T13:06:15.613Z,17.9
2019-02-20T13:09:15.540Z,17.6
2019-02-20T13:12:15.318Z,17.5
2019-02-20T13:15:15.068Z,17.6
2019-02-20T13:18:15.073Z,17.7
2019-02-20T13:21:15.887Z,17.7
2019-02-20T13:24:15.531Z,17.6
2019-02-20T13:27:22.582Z,17.6
2019-02-20T13:30:15.487Z,17.6
2019-02-20T13:33:15.304Z,17.6
2019-02-20T13:36:15.924Z,17.6
2019-02-20T13:39:15.422Z,17.6
2019-02-20T13:42:15.047Z,17.6
2019-02-20T13:45:15.655Z,17.5
2019-02-20T13:48:15.260Z,17.5
2019-02-20T13:51:17.695Z,17.4
2019-02-20T13:54:15.618Z,17.3
2019-02-20T13:57:15.161Z,17.2
2019-02-20T14:00:15.886Z,17.1
2019-02-20T14:03:15.872Z,17.1
2019-02-20T14:06:15.578Z,17.0
2019-02-20T14:09:15.293Z,16.9
2019-02-20T14:12:15.436Z,16.9
2019-02-20T14:15:17.330Z,16.9
2019-02-20T14:18:15.611Z,17.0
2019-02-20T14:21:15.222Z,16.9
2019-02-20T14:24:15.434Z,16.9
2019-02-20T14:27:15.397Z,16.9
2019-02-20T14:30:15.781Z,16.8
2019-02-20T14:33:16.118Z,16.8
2019-02-20T14:36:15.819Z,16.7
2019-02-20T14:39:15.585Z,16.7
2019-02-20T14:42:15.211Z,16.7
2019-02-20T14:45:15.127Z,16.7
2019-02-20T14:48:15.174Z,16.6
2019-02-20T14:51:15.808Z,16.6
2019-02-20T14:54:15.044Z,16.5
2019-02-20T14:57:19.550Z,16.5
2019-02-20T15:00:15.531Z,16.5
2019-02-20T15:03:15.225Z,16.4
2019-02-20T15:06:15.234Z,16.2
2019-02-20T15:09:15.325Z,16.1
2019-02-20T15:12:15.288Z,16.0
2019-02-20T15:15:15.027Z,15.9
2019-02-20T15:18:15.547Z,15.7
2019-02-20T15:21:15.146Z,15.5
2019-02-20T15:24:15.374Z,15.4
2019-02-20T15:27:28.522Z,15.3
2019-02-20T15:30:15.761Z,15.1
2019-02-20T15:33:15.146Z,15.0
2019-02-20T15:36:14.996Z,14.9
2019-02-20T15:39:15.064Z,14.8
2019-02-20T15:42:15.883Z,14.7
2019-02-20T15:45:16.111Z,14.7
2019-02-20T15:48:23.093Z,14.6
2019-02-20T15:51:15.727Z,14.6
2019-02-20T15:54:15.680Z,14.6
2019-02-20T15:57:15.667Z,14.5
2019-02-20T16:00:16.087Z,14.5
2019-02-20T16:03:15.786Z,14.5
2019-02-20T16:06:15.448Z,14.5
2019-02-20T16:09:15.546Z,14.5
2019-02-20T16:12:15.691Z,14.3
2019-02-20T16:15:15.708Z,14.3
2019-02-20T16:18:15.896Z,14.2
2019-02-20T16:21:15.561Z,14.0
2019-02-20T16:24:15.439Z,14.0
2019-02-20T16:27:15.231Z,13.9
2019-02-20T16:30:20.193Z,13.9
2019-02-20T16:33:15.047Z,13.8
2019-02-20T16:36:15.874Z,13.8
2019-02-20T16:39:15.778Z,13.7
2019-02-20T16:42:15.344Z,13.7
2019-02-20T16:45:15.044Z,13.5
2019-02-20T16:48:15.108Z,13.4
2019-02-20T16:51:15.889Z,13.4
2019-02-20T16:54:15.789Z,13.3
2019-02-20T16:57:15.540Z,13.2
2019-02-20T17:00:15.638Z,13.2
2019-02-20T17:03:15.453Z,13.2
2019-02-20T17:06:15.160Z,13.1
2019-02-20T17:09:15.781Z,13.0
2019-02-20T17:12:15.550Z,12.9
2019-02-20T17:15:14.879Z,12.8
2019-02-20T17:18:15.799Z,12.7
2019-02-20T17:21:15.378Z,12.6
2019-02-20T17:24:15.376Z,12.5
2019-02-20T17:27:15.773Z,12.4
2019-02-20T17:30:15.500Z,12.3
2019-02-20T17:33:15.473Z,12.2
2019-02-20T17:36:15.385Z,12.2
2019-02-20T17:39:15.164Z,12.1
2019-02-20T17:42:15.550Z,12.0
2019-02-20T17:45:15.364Z,11.9
2019-02-20T17:48:15.596Z,11.9
2019-02-20T17:51:15.107Z,11.9
2019-02-20T17:54:17.167Z,11.8
2019-02-20T17:57:15.472Z,11.7
2019-02-20T18:00:15.401Z,11.7
2019-02-20T18:03:15.531Z,11.6
2019-02-20T18:06:15.023Z,11.6
2019-02-20T18:09:15.453Z,11.5
2019-02-20T18:12:15.056Z,11.5
2019-02-20T18:15:15.993Z,11.4
2019-02-20T18:18:15.688Z,11.3
2019-02-20T18:21:15.522Z,11.3
2019-02-20T18:24:15.225Z,11.2
2019-02-20T18:27:15.083Z,11.1
2019-02-20T18:30:15.812Z,11.1
2019-02-20T18:33:15.198Z,11.0
2019-02-20T18:36:16.006Z,11.0
2019-02-20T18:39:15.750Z,10.9
2019-02-20T18:42:15.324Z,10.8
2019-02-20T18:45:15.078Z,10.6
2019-02-20T18:48:15.813Z,10.5
2019-02-20T18:51:15.266Z,10.4
2019-02-20T18:54:15.938Z,10.3
2019-02-20T18:57:15.593Z,10.2
2019-02-20T19:00:15.586Z,10.1
2019-02-20T19:03:15.371Z,10.0
2019-02-20T19:06:15.116Z,9.9
2019-02-20T19:09:15.746Z,9.8
2019-02-20T19:12:15.673Z,9.7
2019-02-20T19:15:15.012Z,9.7
2019-02-20T19:18:15.453Z,9.5
2019-02-20T19:21:15.023Z,9.5
2019-02-20T19:24:15.811Z,9.4
2019-02-20T19:27:15.760Z,9.3
2019-02-20T19:30:15.396Z,9.2
2019-02-20T19:33:15.829Z,9.2
2019-02-20T19:36:15.935Z,9.2
2019-02-20T19:39:15.307Z,9.2
2019-02-20T19:42:15.284Z,9.2
2019-02-20T19:45:15.695Z,9.1
2019-02-20T19:48:15.344Z,9.1
2019-02-20T19:51:15.238Z,9.0
2019-02-20T19:54:15.163Z,9.0
2019-02-20T19:57:15.147Z,8.9
2019-02-20T20:00:15.336Z,8.9
2019-02-20T20:03:14.947Z,8.8
2019-02-20T20:06:15.384Z,8.8
2019-02-20T20:09:15.270Z,8.7
2019-02-20T20:12:15.877Z,8.7
2019-02-20T20:15:15.943Z,8.6
2019-02-20T20:18:15.890Z,8.6
2019-02-20T20:21:15.677Z,8.6
2019-02-20T20:24:15.595Z,8.5
2019-02-20T20:27:15.094Z,8.4
2019-02-20T20:30:15.812Z,8.4
2019-02-20T20:33:15.854Z,8.3
2019-02-20T20:36:15.506Z,8.3
2019-02-20T20:39:15.091Z,8.2
2019-02-20T20:42:15.828Z,8.3
2019-02-20T20:45:15.156Z,8.3
2019-02-20T20:48:15.318Z,8.2
2019-02-20T20:51:15.690Z,8.2
2019-02-20T20:54:15.056Z,8.1
2019-02-20T20:57:15.794Z,8.1
2019-02-20T21:00:15.918Z,8.0
2019-02-20T21:03:15.346Z,8.0
2019-02-20T21:06:15.148Z,8.0
2019-02-20T21:09:15.717Z,7.9
2019-02-20T21:12:15.038Z,7.9
2019-02-20T21:15:15.574Z,7.9
2019-02-20T21:18:15.105Z,7.8
2019-02-20T21:21:15.418Z,7.8
2019-02-20T21:24:14.965Z,7.7
2019-02-20T21:27:15.035Z,7.7
2019-02-20T21:30:15.886Z,7.8
2019-02-20T21:33:15.590Z,7.8
2019-02-20T21:36:15.593Z,7.8
2019-02-20T21:39:15.518Z,7.8
2019-02-20T21:42:15.987Z,7.8
2019-02-20T21:45:15.929Z,7.8
2019-02-20T21:48:15.676Z,7.8
2019-02-20T21:51:15.872Z,7.7
2019-02-20T21:54:15.599Z,7.6
2019-02-20T21:57:15.024Z,7.6
2019-02-20T22:00:15.363Z,7.6
2019-02-20T22:03:15.838Z,7.6
2019-02-20T22:06:15.991Z,7.6
2019-02-20T22:09:15.051Z,7.7
2019-02-20T22:12:15.702Z,7.7
2019-02-20T22:15:15.622Z,7.7
2019-02-20T22:18:15.103Z,7.7
2019-02-20T22:21:15.299Z,7.8
2019-02-20T22:24:15.949Z,7.7
2019-02-20T22:27:15.426Z,7.7
2019-02-20T22:30:15.356Z,7.7
2019-02-20T22:33:15.476Z,7.7
2019-02-20T22:36:15.048Z,7.7
2019-02-20T22:39:15.862Z,7.8
2019-02-20T22:42:15.365Z,7.7
2019-02-20T22:45:14.954Z,7.6
2019-02-20T22:48:15.235Z,7.6
2019-02-20T22:51:15.205Z,7.6
2019-02-20T22:54:15.467Z,7.5
2019-02-20T22:57:15.501Z,7.5
2019-02-20T23:00:15.713Z,7.4
2019-02-20T23:03:15.407Z,7.4
2019-02-20T23:06:15.404Z,7.3
2019-02-20T23:09:15.154Z,7.2
2019-02-20T23:12:15.754Z,7.2
2019-02-20T23:15:15.315Z,7.1
2019-02-20T23:18:16.067Z,7.1
2019-02-20T23:21:16.123Z,7.1
2019-02-20T23:24:15.581Z,7.0
2019-02-20T23:27:15.122Z,7.0
2019-02-20T23:30:15.417Z,6.9
2019-02-20T23:33:15.409Z,6.9
2019-02-20T23:36:15.041Z,6.8
2019-02-20T23:39:14.971Z,6.8
2019-02-20T23:42:15.510Z,6.8
2019-02-20T23:45:15.192Z,6.8
2019-02-20T23:48:15.769Z,6.7
2019-02-20T23:51:15.123Z,6.7
2019-02-20T23:54:15.796Z,6.5
2019-02-20T23:57:15.385Z,6.4
